Time;durP1;ratioP1;P1;durP2;ratioP2;P2;SDS_P1;SDS_P2;PMS_P1;PMS_P2;Temp;Humidity;BMP_temperature;BMP_pressure;BME280_temperature;BME280_humidity;BME280_pressure;Samples;Min_cycle;Max_cycle;Signal;HPM_P1;HPM_P2
2022/07/12 00:00:08;;;;;;;9.18;6.53;;;;;;;11.06;95.73;96725.22;2033476;29;20403;-45
2022/07/12 00:01:10;;;;;;;9.88;7.47;;;;;;;11.09;96.64;96730.28;2032910;29;20525;-44
2022/07/12 00:02:12;;;;;;;11.75;7.80;;;;;;;11.10;96.02;96732.00;2032665;29;20044;-44
2022/07/12 00:03:13;;;;;;;10.10;7.22;;;;;;;11.10;95.71;96725.03;2032894;29;20048;-48
2022/07/12 00:04:14;;;;;;;10.05;7.43;;;;;;;11.08;95.77;96729.44;2025241;29;20057;-44
2022/07/12 00:05:15;;;;;;;10.57;7.40;;;;;;;11.03;95.76;96728.75;2032929;29;20059;-45
2022/07/12 00:06:16;;;;;;;11.43;7.07;;;;;;;10.96;96.59;96728.16;2033138;29;20059;-44
2022/07/12 00:07:18;;;;;;;8.65;6.93;;;;;;;10.92;95.87;96733.53;2017765;29;20092;-45
2022/07/12 00:08:19;;;;;;;8.82;6.95;;;;;;;10.84;96.70;96726.00;2017867;29;20404;-48
2022/07/12 00:09:20;;;;;;;10.95;7.68;;;;;;;10.89;96.93;96728.44;2025161;29;20055;-43
2022/07/12 00:10:21;;;;;;;10.13;7.57;;;;;;;10.97;96.75;96726.41;2009975;29;20061;-46
2022/07/12 00:11:23;;;;;;;11.52;7.80;;;;;;;10.97;96.35;96727.25;2017104;29;20056;-44
2022/07/12 00:12:24;;;;;;;10.32;7.53;;;;;;;11.02;96.49;96729.69;2025163;29;20063;-45
2022/07/12 00:13:26;;;;;;;11.27;7.78;;;;;;;11.01;96.72;96722.78;2033115;29;20433;-44
2022/07/12 00:14:27;;;;;;;11.75;7.70;;;;;;;10.99;97.23;96722.00;2024917;29;20411;-43
2022/07/12 00:15:28;;;;;;;10.07;7.72;;;;;;;10.96;96.24;96727.28;2025052;29;20477;-45
2022/07/12 00:16:30;;;;;;;9.38;7.68;;;;;;;11.02;97.39;96734.88;2033410;29;20432;-46
2022/07/12 00:17:31;;;;;;;9.48;7.10;;;;;;;11.02;96.57;96719.28;2025415;29;20056;-47
2022/07/12 00:18:33;;;;;;;11.85;6.82;;;;;;;11.08;95.99;96723.41;2017396;29;20052;-44
2022/07/12 00:19:34;;;;;;;10.85;7.45;;;;;;;11.08;96.18;96724.25;2025238;29;20052;-45
2022/07/12 00:20:35;;;;;;;10.68;7.03;;;;;;;11.09;95.29;96725.94;2025337;29;20041;-44
2022/07/12 00:21:37;;;;;;;11.40;7.80;;;;;;;11.07;95.56;96725.16;2017873;29;20534;-40
2022/07/12 00:22:38;;;;;;;10.13;7.65;;;;;;;11.03;95.93;96721.81;2024691;29;20618;-45
2022/07/12 00:23:39;;;;;;;10.40;6.95;;;;;;;11.03;95.76;96724.41;2024974;29;20109;-43
2022/07/12 00:24:40;;;;;;;10.82;7.25;;;;;;;11.03;95.35;96721.81;2025334;29;20044;-45
2022/07/12 00:25:41;;;;;;;9.35;7.03;;;;;;;11.01;95.46;96721.03;2024737;29;20048;-45
2022/07/12 00:26:43;;;;;;;10.55;7.03;;;;;;;10.93;95.21;96719.63;2025001;29;20051;-45
2022/07/12 00:27:44;;;;;;;10.65;7.30;;;;;;;10.92;95.86;96718.78;2024887;29;20442;-47
2022/07/12 00:28:45;;;;;;;13.30;7.10;;;;;;;10.88;96.01;96725.00;2032733;29;20067;-44
2022/07/12 00:29:46;;;;;;;10.90;7.15;;;;;;;10.92;96.17;96720.53;2040383;29;20078;-44
2022/07/12 00:30:48;;;;;;;10.30;6.65;;;;;;;10.87;95.51;96720.69;2024056;29;20052;-44
2022/07/12 00:31:49;;;;;;;11.00;7.03;;;;;;;10.78;96.25;96724.47;2021365;29;20060;-44
2022/07/12 00:32:50;;;;;;;10.85;6.70;;;;;;;10.76;96.75;96717.66;2017694;29;20439;-46
2022/07/12 00:33:52;;;;;;;8.98;6.93;;;;;;;10.74;96.80;96716.84;2017257;29;20060;-45
2022/07/12 00:34:53;;;;;;;9.65;7.18;;;;;;;10.78;96.61;96721.88;2009945;29;20057;-45
2022/07/12 00:35:55;;;;;;;10.57;7.60;;;;;;;10.75;96.42;96723.75;2009773;29;20060;-45
2022/07/12 00:36:56;;;;;;;8.73;6.30;;;;;;;10.74;96.92;96724.63;2016831;29;20049;-47
2022/07/12 00:37:57;;;;;;;9.05;6.88;;;;;;;10.73;96.31;96723.78;2009656;29;20431;-43
2022/07/12 00:38:58;;;;;;;9.18;6.88;;;;;;;10.69;96.67;96724.81;2009301;29;20049;-45
2022/07/12 00:40:00;;;;;;;9.73;6.95;;;;;;;10.74;96.81;96720.28;2025226;29;20063;-43
2022/07/12 00:41:01;;;;;;;12.45;7.85;;;;;;;10.71;96.82;96723.00;2025216;29;20075;-45
2022/07/12 00:42:03;;;;;;;10.85;7.32;;;;;;;10.72;96.24;96722.13;2017777;29;20053;-44
2022/07/12 00:43:04;;;;;;;12.63;8.13;;;;;;;10.72;97.29;96726.44;2016989;29;20439;-44
2022/07/12 00:44:05;;;;;;;11.27;8.52;;;;;;;10.73;97.59;96723.78;2010119;29;20142;-44
2022/07/12 00:45:07;;;;;;;11.80;8.27;;;;;;;10.67;96.99;96724.03;2009297;29;20064;-44
2022/07/12 00:46:08;;;;;;;12.68;8.10;;;;;;;10.65;97.62;96720.63;2017287;29;20061;-45
2022/07/12 00:47:21;;;;;;;12.60;8.02;;;;;;;10.65;97.75;96725.81;2010155;29;20057;-45
2022/07/12 00:48:23;;;;;;;13.32;8.52;;;;;;;10.66;97.82;96727.50;2013145;29;20060;-47
2022/07/12 00:49:24;;;;;;;10.25;8.05;;;;;;;10.65;98.08;96720.63;2016929;29;20048;-45
2022/07/12 00:50:25;;;;;;;14.45;8.85;;;;;;;10.66;98.09;96721.47;2010382;29;20053;-45
2022/07/12 00:51:26;;;;;;;10.65;8.70;;;;;;;10.64;97.80;96724.16;2009486;29;20060;-44
2022/07/12 00:52:27;;;;;;;11.18;8.73;;;;;;;10.64;98.45;96725.88;2017154;29;20055;-44
2022/07/12 00:53:29;;;;;;;10.50;8.13;;;;;;;10.56;98.66;96724.41;2016995;29;20056;-44
2022/07/12 00:54:30;;;;;;;12.27;8.30;;;;;;;10.58;99.01;96719.16;2010393;29;20117;-44
2022/07/12 00:55:31;;;;;;;12.20;8.88;;;;;;;10.53;98.35;96721.06;2001799;29;20069;-48
2022/07/12 00:56:33;;;;;;;12.98;8.70;;;;;;;10.54;99.09;96726.22;2024971;29;20056;-44
2022/07/12 00:57:36;;;;;;;12.43;8.30;;;;;;;10.57;98.79;96722.66;2024406;29;20052;-44
2022/07/12 00:58:37;;;;;;;15.43;9.02;;;;;;;10.57;99.27;96728.69;2024788;29;20049;-44
2022/07/12 00:59:39;;;;;;;12.30;9.00;;;;;;;10.54;99.22;96725.38;2017491;29;20060;-45
2022/07/12 01:00:40;;;;;;;11.52;8.10;;;;;;;10.51;99.30;96723.72;2009453;29;20060;-44
2022/07/12 01:01:41;;;;;;;12.48;8.23;;;;;;;10.52;98.53;96724.56;2017560;29;20046;-44
2022/07/12 01:02:43;;;;;;;14.02;8.95;;;;;;;10.51;99.09;96725.47;2024457;29;20186;-44
2022/07/12 01:03:45;;;;;;;11.20;7.28;;;;;;;10.51;98.43;96722.88;2017022;29;20053;-46
2022/07/12 01:04:46;;;;;;;10.48;8.20;;;;;;;10.49;98.03;96720.31;2009401;29;20045;-45
2022/07/12 01:05:47;;;;;;;14.32;8.07;;;;;;;10.48;98.85;96721.25;2017035;29;20059;-48
2022/07/12 01:06:50;;;;;;;13.02;8.70;;;;;;;10.46;98.79;96735.19;2024369;29;20052;-45
2022/07/12 01:07:51;;;;;;;13.50;9.25;;;;;;;10.44;98.98;96730.03;2016728;29;20072;-44
2022/07/12 01:08:52;;;;;;;12.30;8.80;;;;;;;10.41;98.11;96729.28;2009830;29;20053;-45
2022/07/12 01:09:54;;;;;;;11.55;8.40;;;;;;;10.38;98.34;96732.84;2009833;29;20060;-47
2022/07/12 01:10:56;;;;;;;11.38;8.57;;;;;;;10.35;98.73;96731.19;2010079;29;20554;-44
2022/07/12 01:11:57;;;;;;;13.98;8.90;;;;;;;10.36;98.92;96739.81;2002585;29;20061;-44
2022/07/12 01:12:59;;;;;;;13.35;8.60;;;;;;;10.34;98.95;96737.31;2017252;29;20076;-44
2022/07/12 01:14:00;;;;;;;11.63;8.77;;;;;;;10.31;98.99;96737.38;2010106;29;20057;-45
2022/07/12 01:15:01;;;;;;;11.50;8.15;;;;;;;10.22;98.55;96732.50;2009600;29;20531;-44
2022/07/12 01:16:04;;;;;;;10.38;8.35;;;;;;;10.31;98.37;96727.00;2010119;29;20057;-45
2022/07/12 01:17:06;;;;;;;10.13;8.00;;;;;;;10.31;98.78;96733.94;2017037;29;20048;-44
2022/07/12 01:18:08;;;;;;;11.95;7.78;;;;;;;10.22;98.54;96726.47;2016486;29;20464;-43
2022/07/12 01:19:09;;;;;;;10.55;7.80;;;;;;;10.22;98.64;96736.84;2002234;29;20061;-43
2022/07/12 01:20:11;;;;;;;9.93;7.30;;;;;;;10.35;98.30;96731.19;2002663;29;20056;-44
2022/07/12 01:21:19;;;;;;;9.55;7.43;;;;;;;10.32;97.90;96728.72;2009288;29;20045;-47
2022/07/12 01:22:20;;;;;;;10.93;7.77;;;;;;;10.36;97.49;96729.44;2018194;29;20064;-47
2022/07/12 01:23:23;;;;;;;10.40;7.00;;;;;;;10.43;97.57;96723.16;2009021;29;20300;-45
2022/07/12 01:24:24;;;;;;;11.15;7.78;;;;;;;10.38;97.96;96727.66;2002366;29;20057;-43
2022/07/12 01:25:25;;;;;;;10.40;7.15;;;;;;;10.35;97.57;96727.75;2017149;29;20056;-44
2022/07/12 01:26:27;;;;;;;11.57;7.97;;;;;;;10.31;97.20;96727.00;2031858;29;20063;-47
2022/07/12 01:27:28;;;;;;;9.70;7.80;;;;;;;10.27;97.48;96730.63;2032031;29;20051;-43
2022/07/12 01:28:29;;;;;;;13.43;8.60;;;;;;;10.23;98.14;96722.94;2024864;29;20049;-45
2022/07/12 01:29:31;;;;;;;13.43;8.48;;;;;;;10.16;97.81;96725.75;2024455;29;20554;-44
2022/07/12 01:30:32;;;;;;;15.20;9.07;;;;;;;10.15;97.65;96724.03;2032255;29;20044;-44
2022/07/12 01:31:34;;;;;;;13.15;8.18;;;;;;;10.16;97.77;96724.91;2023171;29;20049;-46
2022/07/12 01:33:37;;;;;;;11.45;8.13;;;;;;;10.11;97.82;96732.84;2016970;29;20052;-42
2022/07/12 01:34:38;;;;;;;11.60;8.18;;;;;;;10.07;98.36;96723.47;2017019;29;20056;-43
2022/07/12 01:35:39;;;;;;;12.20;8.25;;;;;;;10.09;98.07;96731.22;2024276;29;20059;-46
2022/07/12 01:36:40;;;;;;;9.95;7.68;;;;;;;10.02;98.35;96727.94;2024428;29;20052;-44
2022/07/12 01:37:42;;;;;;;12.55;8.15;;;;;;;10.05;97.89;96734.78;2016882;29;20056;-44
2022/07/12 01:38:43;;;;;;;12.18;7.53;;;;;;;10.00;98.01;96732.38;2017186;29;20404;-47
2022/07/12 01:39:44;;;;;;;15.15;9.05;;;;;;;10.04;98.18;96736.53;2017199;29;20052;-44
2022/07/12 01:40:47;;;;;;;12.15;8.80;;;;;;;10.01;98.83;96741.84;2024077;29;20052;-45
2022/07/12 01:41:48;;;;;;;11.27;8.23;;;;;;;10.01;99.04;96733.22;2032098;29;20048;-44
2022/07/12 01:42:50;;;;;;;11.77;8.70;;;;;;;10.02;98.68;96733.13;2024272;29;20048;-44
2022/07/12 01:43:52;;;;;;;11.45;8.15;;;;;;;10.04;99.08;96733.94;2032394;29;20056;-46
2022/07/12 01:44:53;;;;;;;14.98;8.15;;;;;;;10.00;98.81;96727.19;2032630;29;20052;-47
2022/07/12 01:45:55;;;;;;;11.35;7.90;;;;;;;10.02;98.60;96743.53;2024096;29;20557;-44
2022/07/12 01:46:57;;;;;;;11.65;8.85;;;;;;;10.03;99.08;96729.66;2009566;29;20053;-45
2022/07/12 01:47:58;;;;;;;10.38;7.93;;;;;;;10.00;98.90;96731.53;2017263;29;20060;-44
2022/07/12 01:49:00;;;;;;;10.35;7.30;;;;;;;9.97;99.15;96732.47;2024413;29;20048;-45
2022/07/12 01:50:02;;;;;;;12.88;8.18;;;;;;;9.96;98.11;96733.34;2017085;29;20079;-43
2022/07/12 01:51:05;;;;;;;13.10;9.13;;;;;;;9.97;98.46;96731.59;2025178;29;20442;-47
2022/07/12 01:52:06;;;;;;;10.00;7.80;;;;;;;9.88;98.88;96728.41;2009428;29;20050;-44
2022/07/12 01:53:07;;;;;;;10.90;7.90;;;;;;;9.83;98.30;96727.72;2017405;29;20531;-44
2022/07/12 01:54:09;;;;;;;11.68;8.55;;;;;;;9.82;98.70;96728.63;2024855;29;20044;-45
2022/07/12 01:55:10;;;;;;;12.45;8.48;;;;;;;9.90;98.70;96728.38;2024845;29;20049;-46
2022/07/12 01:56:11;;;;;;;10.73;8.27;;;;;;;9.91;99.12;96730.06;2024164;29;20067;-43
2022/07/12 01:57:13;;;;;;;10.45;7.97;;;;;;;9.93;98.80;96718.72;2010062;29;20065;-45
2022/07/12 01:58:14;;;;;;;10.88;7.80;;;;;;;9.97;98.88;96721.22;2016679;29;20048;-48
2022/07/12 01:59:15;;;;;;;10.40;8.02;;;;;;;9.98;98.09;96725.53;2017346;29;20060;-45
2022/07/12 02:00:17;;;;;;;10.35;7.47;;;;;;;9.99;98.39;96724.63;2016477;29;20052;-47
2022/07/12 02:01:19;;;;;;;12.23;8.15;;;;;;;9.96;98.20;96724.72;2016932;29;20105;-47
2022/07/12 02:02:20;;;;;;;10.38;7.95;;;;;;;9.92;97.90;96722.25;2016600;29;20049;-47
2022/07/12 02:03:22;;;;;;;12.93;8.13;;;;;;;9.92;97.97;96729.19;2017528;29;20061;-44
2022/07/12 02:04:23;;;;;;;11.13;7.43;;;;;;;9.89;98.33;96732.72;2032200;29;20051;-44
2022/07/12 02:05:24;;;;;;;10.13;8.02;;;;;;;9.80;98.39;96725.22;2024353;29;20059;-46
2022/07/12 02:06:25;;;;;;;11.05;7.90;;;;;;;9.79;98.20;96727.88;2009561;29;20057;-44
2022/07/12 02:07:27;;;;;;;9.88;7.45;;;;;;;9.85;98.37;96722.50;2024300;29;20045;-44
2022/07/12 02:08:28;;;;;;;10.32;7.95;;;;;;;9.84;98.03;96729.44;2024711;29;20430;-45
2022/07/12 02:09:29;;;;;;;10.85;8.27;;;;;;;9.86;97.95;96726.75;2024206;29;20478;-45
2022/07/12 02:10:30;;;;;;;11.65;8.45;;;;;;;9.82;98.00;96726.03;2017256;29;20052;-44
2022/07/12 02:11:31;;;;;;;10.00;7.40;;;;;;;9.76;98.07;96723.66;2017205;29;20060;-45
2022/07/12 02:12:33;;;;;;;11.45;7.93;;;;;;;9.86;98.69;96732.81;2016782;29;20595;-46
2022/07/12 02:13:34;;;;;;;12.68;8.82;;;;;;;9.86;99.05;96730.22;2009446;29;20105;-47
2022/07/12 02:14:36;;;;;;;13.27;8.85;;;;;;;9.83;98.68;96738.09;2024768;29;20139;-46
2022/07/12 02:15:37;;;;;;;13.23;9.35;;;;;;;9.80;98.98;96732.16;2032418;29;20048;-41
2022/07/12 02:16:40;;;;;;;11.25;8.45;;;;;;;9.79;98.84;96733.91;2032269;29;20557;-44
2022/07/12 02:17:41;;;;;;;13.48;9.57;;;;;;;9.73;99.31;96734.13;2024298;29;20053;-43
2022/07/12 02:18:43;;;;;;;14.45;10.13;;;;;;;9.75;98.95;96734.91;2025382;29;20061;-43
2022/07/12 02:19:44;;;;;;;13.48;8.85;;;;;;;9.74;99.39;96735.81;2016384;29;20426;-43
2022/07/12 02:20:45;;;;;;;13.38;10.07;;;;;;;9.77;99.57;96746.06;2017364;29;20068;-45
2022/07/12 02:21:46;;;;;;;13.90;9.68;;;;;;;9.81;98.84;96737.31;2016710;29;20049;-43
2022/07/12 02:22:48;;;;;;;12.50;8.73;;;;;;;9.84;98.88;96746.75;2031686;29;20162;-43
2022/07/12 02:23:49;;;;;;;11.63;8.15;;;;;;;9.75;98.47;96742.69;2024872;29;20063;-44
2022/07/12 02:24:50;;;;;;;11.35;8.45;;;;;;;9.68;98.13;96743.78;2023975;29;20052;-44
2022/07/12 02:25:51;;;;;;;11.05;8.65;;;;;;;9.66;97.34;96740.38;2031982;29;20044;-45
2022/07/12 02:26:53;;;;;;;11.18;7.60;;;;;;;9.61;96.88;96743.13;2040101;29;20062;-43
2022/07/12 02:27:54;;;;;;;12.88;8.45;;;;;;;9.56;96.89;96741.56;2031881;29;20552;-43
2022/07/12 02:28:56;;;;;;;11.63;7.80;;;;;;;9.53;96.98;96737.31;2016854;29;20166;-47
2022/07/12 02:29:57;;;;;;;11.15;7.80;;;;;;;9.51;97.41;96739.13;2016706;29;20542;-44
2022/07/12 02:30:59;;;;;;;10.75;7.22;;;;;;;9.54;97.36;96739.00;2016923;29;20053;-44
2022/07/12 02:32:00;;;;;;;14.30;8.50;;;;;;;9.53;97.55;96739.06;2016642;29;20446;-41
2022/07/12 02:33:01;;;;;;;11.85;8.45;;;;;;;9.48;97.37;96742.66;2024537;29;20053;-47
2022/07/12 02:34:04;;;;;;;12.15;8.50;;;;;;;9.54;97.84;96743.34;2016622;29;20064;-45
2022/07/12 02:35:05;;;;;;;12.93;8.85;;;;;;;9.50;98.07;96740.88;2018122;29;20064;-44
2022/07/12 02:36:07;;;;;;;12.98;8.77;;;;;;;9.50;98.33;96743.44;2025708;29;20045;-44
2022/07/12 02:37:08;;;;;;;12.90;8.98;;;;;;;9.49;98.21;96736.59;2025648;29;20052;-45
2022/07/12 02:38:09;;;;;;;11.25;8.02;;;;;;;9.48;97.45;96740.06;2018605;29;20555;-44
2022/07/12 02:39:11;;;;;;;12.00;8.77;;;;;;;9.48;97.47;96741.81;2018313;29;20068;-42
2022/07/12 02:41:33;;;;;;;14.38;8.55;;;;;;;9.45;97.65;96747.94;2020942;29;20510;-44
2022/07/12 02:42:34;;;;;;;11.93;8.75;;;;;;;9.39;97.54;96750.72;2027524;29;20048;-43
2022/07/12 02:43:36;;;;;;;11.98;8.43;;;;;;;9.41;97.63;96748.06;2025839;29;20099;-44
2022/07/12 02:44:37;;;;;;;11.15;8.40;;;;;;;9.39;98.12;96745.53;2017774;29;20045;-41
2022/07/12 02:45:38;;;;;;;12.18;8.60;;;;;;;9.35;97.74;96746.50;2018526;29;20044;-44
2022/07/12 02:46:39;;;;;;;13.25;8.60;;;;;;;9.32;98.27;96741.41;2025890;29;20048;-43
2022/07/12 02:47:41;;;;;;;14.38;8.98;;;;;;;9.31;97.80;96742.34;2018298;29;20049;-45
2022/07/12 02:48:42;;;;;;;11.82;8.75;;;;;;;9.31;98.10;96752.69;2025620;29;20040;-45
2022/07/12 02:49:44;;;;;;;12.75;8.88;;;;;;;9.30;98.09;96750.97;2033067;29;20533;-43
2022/07/12 02:50:45;;;;;;;12.13;9.00;;;;;;;9.28;98.31;96748.44;2025732;29;20056;-44
2022/07/12 02:51:46;;;;;;;11.68;8.43;;;;;;;9.26;97.74;96739.03;2025983;29;20052;-46
2022/07/12 02:52:47;;;;;;;13.98;8.60;;;;;;;9.24;98.19;96748.59;2017964;29;20052;-43
2022/07/12 02:53:49;;;;;;;11.32;8.38;;;;;;;9.21;98.24;96740.91;2018053;29;20546;-45
2022/07/12 02:54:50;;;;;;;13.73;8.95;;;;;;;9.18;97.87;96751.38;2011072;29;20053;-43
2022/07/12 02:55:51;;;;;;;14.88;9.55;;;;;;;9.21;97.93;96746.09;2011180;29;20050;-43
2022/07/12 02:56:52;;;;;;;14.20;9.18;;;;;;;9.21;98.46;96746.09;2025607;29;20653;-44
2022/07/12 02:57:53;;;;;;;17.00;9.50;;;;;;;9.21;98.52;96744.34;2025866;29;20053;-44
2022/07/12 02:58:55;;;;;;;12.77;8.70;;;;;;;9.18;98.84;96741.00;2011098;29;20065;-45
2022/07/12 02:59:56;;;;;;;11.90;8.68;;;;;;;9.19;98.65;96740.09;2010913;29;20053;-44
2022/07/12 03:00:57;;;;;;;15.07;9.35;;;;;;;9.16;98.44;96741.03;2018142;29;20049;-45
2022/07/12 03:01:58;;;;;;;15.48;9.80;;;;;;;9.16;98.88;96741.03;2017932;29;20063;-44
2022/07/12 03:03:00;;;;;;;13.60;8.55;;;;;;;9.18;98.83;96738.41;2017404;29;20049;-44
2022/07/12 03:04:01;;;;;;;12.82;9.45;;;;;;;9.19;99.30;96740.09;2018138;29;20057;-45
2022/07/12 03:05:03;;;;;;;13.80;8.65;;;;;;;9.15;99.18;96738.50;2018218;29;20049;-44
2022/07/12 03:06:04;;;;;;;12.18;9.13;;;;;;;9.16;99.06;96743.63;2017626;29;20439;-45
2022/07/12 03:07:06;;;;;;;12.35;9.10;;;;;;;9.23;98.68;96746.91;2025365;29;20049;-44
2022/07/12 03:08:08;;;;;;;14.75;9.55;;;;;;;9.16;98.43;96738.44;2019887;29;20056;-45
2022/07/12 03:09:09;;;;;;;15.05;9.70;;;;;;;9.12;98.73;96741.19;2031770;29;20534;-45
2022/07/12 03:10:10;;;;;;;13.75;9.35;;;;;;;9.11;98.31;96736.88;2025353;29;20056;-43
2022/07/12 03:11:12;;;;;;;13.02;9.30;;;;;;;9.12;98.78;96747.22;2033803;29;20537;-45
2022/07/12 03:12:13;;;;;;;14.10;8.93;;;;;;;9.10;98.50;96737.78;2025228;29;20056;-44
2022/07/12 03:13:14;;;;;;;13.98;9.35;;;;;;;9.09;98.68;96738.66;2018172;29;20053;-44
2022/07/12 03:14:16;;;;;;;15.73;9.73;;;;;;;9.07;98.84;96737.88;2025683;29;20048;-45
2022/07/12 03:15:17;;;;;;;13.93;9.05;;;;;;;9.06;98.28;96742.19;2025722;29;20056;-44
2022/07/12 03:16:18;;;;;;;15.07;9.63;;;;;;;9.02;98.58;96740.59;2018226;29;20053;-43
2022/07/12 03:17:20;;;;;;;13.38;9.10;;;;;;;9.01;98.63;96739.75;2033445;29;20048;-44
2022/07/12 03:18:22;;;;;;;14.75;9.88;;;;;;;8.98;98.57;96746.75;2040778;29;20406;-45
2022/07/12 03:19:23;;;;;;;11.48;7.88;;;;;;;8.92;98.75;96739.16;2025751;29;20059;-43
2022/07/12 03:20:24;;;;;;;14.90;9.35;;;;;;;8.91;98.50;96742.66;2025417;29;20059;-44
2022/07/12 03:21:25;;;;;;;14.00;9.43;;;;;;;8.89;98.83;96739.25;2018198;29;20056;-43
2022/07/12 03:22:26;;;;;;;11.75;8.20;;;;;;;8.93;98.76;96739.13;2002727;29;20057;-44
2022/07/12 03:23:28;;;;;;;14.45;9.55;;;;;;;8.93;98.79;96738.28;2010774;29;20037;-47
2022/07/12 03:24:29;;;;;;;13.05;9.18;;;;;;;8.89;99.51;96739.25;2026450;29;20603;-44
2022/07/12 03:25:31;;;;;;;12.27;8.43;;;;;;;8.87;98.74;96746.22;2025948;29;20044;-45
2022/07/12 03:26:32;;;;;;;12.93;9.52;;;;;;;8.92;98.76;96740.00;2034190;29;20466;-47
2022/07/12 03:27:34;;;;;;;11.88;8.55;;;;;;;8.92;99.35;96739.16;2042017;29;20044;-45
2022/07/12 03:28:35;;;;;;;16.73;8.82;;;;;;;8.92;98.84;96736.56;2033026;29;20052;-44
2022/07/12 03:29:36;;;;;;;14.35;9.60;;;;;;;8.92;99.23;96741.75;2026039;29;20484;-46
2022/07/12 03:30:38;;;;;;;13.23;8.52;;;;;;;8.91;98.93;96743.50;2017686;29;20059;-43
2022/07/12 03:31:39;;;;;;;13.32;8.52;;;;;;;8.86;99.32;96745.38;2015983;29;20056;-44
2022/07/12 03:32:40;;;;;;;12.32;8.65;;;;;;;8.88;98.52;96740.16;2010278;29;20049;-46
2022/07/12 03:33:41;;;;;;;11.30;8.15;;;;;;;8.94;99.02;96740.81;2010148;29;20052;-44
2022/07/12 03:34:42;;;;;;;13.23;9.45;;;;;;;8.96;98.86;96741.63;2017785;29;20060;-45
2022/07/12 03:35:44;;;;;;;11.43;8.32;;;;;;;8.97;98.70;96745.06;2033639;29;20142;-44
2022/07/12 03:36:45;;;;;;;12.68;8.50;;;;;;;9.02;98.58;96745.78;2025398;29;20064;-44
2022/07/12 03:37:50;;;;;;;11.27;8.52;;;;;;;9.02;98.19;96741.44;2017920;29;20104;-47
2022/07/12 03:38:51;;;;;;;11.65;7.97;;;;;;;9.07;98.37;96740.47;2017918;29;20053;-44
2022/07/12 03:39:53;;;;;;;11.90;8.48;;;;;;;9.09;98.33;96747.31;2025409;29;20060;-43
2022/07/12 03:40:54;;;;;;;13.55;8.88;;;;;;;9.09;98.34;96742.13;2025207;29;20052;-44
2022/07/12 03:41:55;;;;;;;11.55;8.50;;;;;;;9.07;98.05;96751.69;2010289;29;20053;-42
2022/07/12 03:42:58;;;;;;;12.57;9.13;;;;;;;9.00;98.56;96748.41;2017589;29;20539;-49
2022/07/12 03:43:59;;;;;;;16.98;9.18;;;;;;;8.99;98.08;96745.88;2032807;29;20525;-45
2022/07/12 03:45:00;;;;;;;14.00;8.63;;;;;;;8.98;98.43;96746.75;2025192;29;20057;-44
2022/07/12 03:46:01;;;;;;;14.23;9.23;;;;;;;8.97;98.63;96751.09;2009841;29;20059;-44
2022/07/12 03:47:03;;;;;;;11.90;8.50;;;;;;;8.95;98.50;96752.03;2017115;29;20060;-47
2022/07/12 03:48:04;;;;;;;13.07;8.75;;;;;;;8.97;98.33;96752.84;2024845;29;20052;-44
2022/07/12 03:49:05;;;;;;;15.40;9.70;;;;;;;8.98;98.22;96755.41;2017498;29;20053;-43
2022/07/12 03:50:08;;;;;;;10.90;7.95;;;;;;;8.97;98.36;96751.09;2018140;29;20048;-43
2022/07/12 03:51:09;;;;;;;14.63;9.65;;;;;;;8.99;98.44;96749.31;2017774;29;20049;-45
2022/07/12 03:52:11;;;;;;;14.88;8.77;;;;;;;9.03;98.71;96753.53;2017685;29;20052;-44
2022/07/12 03:53:12;;;;;;;12.05;9.18;;;;;;;9.05;98.99;96759.50;2025230;29;20060;-45
2022/07/12 03:54:13;;;;;;;14.70;9.38;;;;;;;9.03;98.67;96758.72;2017611;29;20052;-47
2022/07/12 03:55:14;;;;;;;16.73;10.57;;;;;;;9.01;99.10;96757.06;2017583;29;20056;-46
2022/07/12 03:57:13;;;;;;;13.65;8.70;;;;;;;9.00;98.29;96753.59;2017884;29;20053;-43
2022/07/12 03:57:37;;;;;;;14.02;9.25;;;;;;;9.01;98.63;96757.91;2028205;29;20502;-41
2022/07/12 03:58:38;;;;;;;11.65;8.13;;;;;;;9.01;98.45;96764.81;2025486;29;20052;-44
2022/07/12 03:59:41;;;;;;;14.20;8.63;;;;;;;9.05;98.64;96759.50;2017767;29;20847;-46
2022/07/12 04:00:42;;;;;;;13.23;9.07;;;;;;;9.11;98.72;96760.22;2003068;29;20056;-45
2022/07/12 04:01:44;;;;;;;14.63;9.18;;;;;;;9.10;98.28;96759.38;2010142;29;20046;-49
2022/07/12 04:02:45;;;;;;;14.05;9.10;;;;;;;9.05;98.03;96758.66;2017852;29;20065;-43
2022/07/12 04:03:46;;;;;;;11.50;8.63;;;;;;;9.05;98.28;96762.06;2025112;29;20052;-45
2022/07/12 04:04:47;;;;;;;15.05;9.45;;;;;;;9.05;98.45;96767.25;2025980;29;20049;-43
2022/07/12 04:05:48;;;;;;;13.50;9.20;;;;;;;9.04;98.46;96759.56;2017494;29;20053;-43
2022/07/12 04:06:50;;;;;;;13.48;8.00;;;;;;;9.03;98.20;96769.06;2023516;29;20048;-47
2022/07/12 04:07:51;;;;;;;14.00;8.98;;;;;;;9.05;98.37;96759.50;2017844;29;20056;-44
2022/07/12 04:08:52;;;;;;;14.68;8.82;;;;;;;9.09;98.18;96767.16;2024923;29;20092;-45
2022/07/12 04:09:53;;;;;;;13.65;9.18;;;;;;;9.08;98.06;96766.31;2032941;29;20440;-43
2022/07/12 04:10:55;;;;;;;14.70;10.77;;;;;;;9.09;98.60;96772.34;2032174;29;20056;-45
2022/07/12 04:11:56;;;;;;;15.93;9.68;;;;;;;9.14;98.17;96771.34;2024612;29;20048;-46
2022/07/12 04:12:57;;;;;;;12.23;8.40;;;;;;;9.20;98.22;96765.13;2025005;29;20048;-44
2022/07/12 04:13:59;;;;;;;12.27;8.70;;;;;;;9.18;98.27;96772.94;2025119;29;20052;-45
2022/07/12 04:15:00;;;;;;;15.05;8.35;;;;;;;9.19;98.08;96759.06;2017651;29;20434;-47
2022/07/12 04:16:02;;;;;;;12.40;8.57;;;;;;;9.23;98.56;96763.28;2017801;29;20045;-43
2022/07/12 04:17:05;;;;;;;15.73;8.70;;;;;;;9.27;97.80;96772.69;2032860;29;20056;-43
2022/07/12 04:18:06;;;;;;;14.23;9.32;;;;;;;9.31;98.26;96775.19;2025468;29;20052;-44
2022/07/12 04:19:09;;;;;;;14.95;8.95;;;;;;;9.33;98.44;96774.25;2017443;29;20053;-44
2022/07/12 04:20:11;;;;;;;12.63;8.90;;;;;;;9.36;97.65;96771.56;2025440;29;20056;-47
2022/07/12 04:21:12;;;;;;;14.27;8.88;;;;;;;9.44;98.29;96768.75;2024928;29;20056;-44
2022/07/12 04:22:13;;;;;;;14.80;8.18;;;;;;;9.54;97.54;96764.09;2025018;29;20059;-42
2022/07/12 04:23:15;;;;;;;12.75;9.68;;;;;;;9.56;97.24;96762.31;2033089;29;20044;-44
2022/07/12 04:24:16;;;;;;;10.55;7.65;;;;;;;9.57;97.58;96757.09;2033131;29;20048;-47
2022/07/12 04:25:17;;;;;;;12.90;8.55;;;;;;;9.56;96.76;96759.72;2025143;29;20065;-47
2022/07/12 04:26:19;;;;;;;10.98;8.40;;;;;;;9.56;96.75;96762.31;2032027;29;20047;-44
2022/07/12 04:27:20;;;;;;;11.25;8.38;;;;;;;9.61;96.48;96757.84;2025177;29;20048;-43
2022/07/12 04:28:21;;;;;;;12.35;8.30;;;;;;;9.63;96.89;96758.66;2025290;29;20391;-46
2022/07/12 04:29:22;;;;;;;11.52;8.10;;;;;;;9.67;97.16;96760.22;2024862;29;20063;-46
2022/07/12 04:30:24;;;;;;;11.10;8.52;;;;;;;9.68;97.07;96755.00;2025401;29;20573;-44
2022/07/12 04:31:25;;;;;;;13.00;9.00;;;;;;;9.69;96.65;96761.88;2040277;29;20051;-45
2022/07/12 04:32:26;;;;;;;12.55;9.07;;;;;;;9.67;97.01;96762.81;2025375;29;20401;-43
2022/07/12 04:33:28;;;;;;;13.40;8.90;;;;;;;9.70;97.06;96770.50;2025444;29;20048;-44
2022/07/12 04:34:29;;;;;;;15.15;9.57;;;;;;;9.68;97.25;96765.38;2032441;29;20044;-45
2022/07/12 04:35:30;;;;;;;15.30;8.50;;;;;;;9.71;96.66;96761.84;2032278;29;20044;-44
2022/07/12 04:36:32;;;;;;;13.07;8.98;;;;;;;9.74;96.67;96763.50;2025001;29;20052;-44
2022/07/12 04:37:34;;;;;;;12.32;8.48;;;;;;;9.77;97.26;96764.22;2032243;29;20604;-43
2022/07/12 04:38:35;;;;;;;15.43;9.27;;;;;;;9.82;96.55;96764.94;2033707;29;20048;-47
2022/07/12 04:39:36;;;;;;;12.25;8.95;;;;;;;9.87;97.00;96763.03;2032644;29;20052;-42
2022/07/12 04:40:37;;;;;;;13.10;8.55;;;;;;;9.91;97.04;96759.44;2032425;29;20052;-43
2022/07/12 04:41:39;;;;;;;13.15;8.65;;;;;;;9.97;96.56;96755.81;2032793;29;20048;-43
2022/07/12 04:42:40;;;;;;;11.88;8.48;;;;;;;10.06;96.45;96762.47;2032281;29;20040;-44
2022/07/12 04:43:41;;;;;;;12.45;8.38;;;;;;;10.21;95.75;96764.53;2032666;29;20626;-44
2022/07/12 04:44:42;;;;;;;11.82;8.90;;;;;;;10.30;96.44;96753.03;2024607;29;20052;-44
2022/07/12 04:45:44;;;;;;;12.43;8.07;;;;;;;10.38;95.94;96759.66;2025477;29;20063;-45
2022/07/12 04:46:45;;;;;;;11.32;8.38;;;;;;;10.42;94.75;96756.94;2025269;29;20051;-44
2022/07/12 04:47:46;;;;;;;12.45;7.70;;;;;;;10.42;94.51;96762.13;2032866;29;20048;-44
2022/07/12 04:48:47;;;;;;;13.05;7.93;;;;;;;10.41;94.02;96763.88;2024707;29;20056;-44
2022/07/12 04:49:48;;;;;;;14.18;8.38;;;;;;;10.41;94.93;96760.44;2024486;29;20075;-44
2022/07/12 04:50:50;;;;;;;12.13;8.23;;;;;;;10.45;93.68;96765.50;2024736;29;20457;-46